sensor_id;sensor_type;location;lat;lon;timestamp;pressure;altitude;pressure_sealevel;temperature;humidity
43450;BME280;29041;42.266;23.110;2024-03-23T00:55:11;95906.44;;;2.67;98.01
43450;BME280;29041;42.266;23.110;2024-03-23T00:57:57;95893.72;;;2.69;97.54
43450;BME280;29041;42.266;23.110;2024-03-23T01:00:44;95909.06;;;2.72;97.83
43450;BME280;29041;42.266;23.110;2024-03-23T01:03:31;95901.94;;;2.62;98.47
43450;BME280;29041;42.266;23.110;2024-03-23T01:06:19;95916.75;;;2.79;97.42
43450;BME280;29041;42.266;23.110;2024-03-23T01:09:09;95908.03;;;2.58;99.61
43450;BME280;29041;42.266;23.110;2024-03-23T01:12:11;95893.22;;;2.41;99.23
43450;BME280;29041;42.266;23.110;2024-03-23T01:14:57;95911.22;;;2.54;99.43
43450;BME280;29041;42.266;23.110;2024-03-23T01:17:46;95897.72;;;2.41;99.51
43450;BME280;29041;42.266;23.110;2024-03-23T01:20:32;95897.72;;;2.35;100.00
43450;BME280;29041;42.266;23.110;2024-03-23T01:23:19;95901.94;;;2.47;100.00
43450;BME280;29041;42.266;23.110;2024-03-23T01:26:06;95912.56;;;2.36;100.00
43450;BME280;29041;42.266;23.110;2024-03-23T01:28:54;95904.88;;;2.40;100.00
43450;BME280;29041;42.266;23.110;2024-03-23T01:31:41;95910.69;;;2.37;100.00
43450;BME280;29041;42.266;23.110;2024-03-23T01:34:27;95910.97;;;2.30;100.00
43450;BME280;29041;42.266;23.110;2024-03-23T01:37:14;95912.56;;;2.42;100.00
43450;BME280;29041;42.266;23.110;2024-03-23T01:40:00;95899.31;;;2.31;100.00
43450;BME280;29041;42.266;23.110;2024-03-23T01:42:57;95906.72;;;2.19;100.00
43450;BME280;29041;42.266;23.110;2024-03-23T01:45:44;95908.06;;;2.11;100.00
43450;BME280;29041;42.266;23.110;2024-03-23T01:48:31;95887.63;;;1.96;100.00
43450;BME280;29041;42.266;23.110;2024-03-23T01:51:17;95900.63;;;2.08;100.00
43450;BME280;29041;42.266;23.110;2024-03-23T01:54:06;95893.41;;;1.67;100.00
43450;BME280;29041;42.266;23.110;2024-03-23T01:56:54;95897.16;;;1.97;100.00
43450;BME280;29041;42.266;23.110;2024-03-23T01:59:41;95879.16;;;1.84;100.00
43450;BME280;29041;42.266;23.110;2024-03-23T02:02:28;95895.81;;;1.84;100.00
43450;BME280;29041;42.266;23.110;2024-03-23T02:05:16;95903.50;;;1.76;100.00
43450;BME280;29041;42.266;23.110;2024-03-23T02:08:04;95915.84;;;1.44;100.00
43450;BME280;29041;42.266;23.110;2024-03-23T02:10:51;95913.50;;;1.58;100.00
43450;BME280;29041;42.266;23.110;2024-03-23T02:13:39;95916.91;;;1.43;100.00
43450;BME280;29041;42.266;23.110;2024-03-23T02:16:28;95901.81;;;1.43;100.00
43450;BME280;29041;42.266;23.110;2024-03-23T02:19:16;95916.84;;;1.33;100.00
43450;BME280;29041;42.266;23.110;2024-03-23T02:22:03;95911.81;;;1.31;100.00
43450;BME280;29041;42.266;23.110;2024-03-23T02:24:51;95926.94;;;1.46;100.00
43450;BME280;29041;42.266;23.110;2024-03-23T02:27:43;95919.59;;;1.64;100.00
43450;BME280;29041;42.266;23.110;2024-03-23T02:30:32;95908.09;;;1.27;100.00
43450;BME280;29041;42.266;23.110;2024-03-23T02:33:27;95864.34;;;0.99;100.00
43450;BME280;29041;42.266;23.110;2024-03-23T02:36:22;95909.63;;;1.13;100.00
43450;BME280;29041;42.266;23.110;2024-03-23T02:39:10;95929.16;;;1.06;100.00
43450;BME280;29041;42.266;23.110;2024-03-23T02:42:06;95924.56;;;1.39;100.00
43450;BME280;29041;42.266;23.110;2024-03-23T02:44:56;95933.63;;;1.59;100.00
43450;BME280;29041;42.266;23.110;2024-03-23T02:47:43;95928.47;;;1.26;100.00
43450;BME280;29041;42.266;23.110;2024-03-23T02:50:31;95931.38;;;1.25;100.00
43450;BME280;29041;42.266;23.110;2024-03-23T02:53:18;95895.25;;;0.98;100.00
43450;BME280;29041;42.266;23.110;2024-03-23T02:56:06;95911.19;;;1.03;100.00
43450;BME280;29041;42.266;23.110;2024-03-23T02:58:58;95932.34;;;1.08;100.00
43450;BME280;29041;42.266;23.110;2024-03-23T03:01:47;95941.31;;;1.07;100.00
43450;BME280;29041;42.266;23.110;2024-03-23T03:04:33;95925.25;;;1.14;100.00
43450;BME280;29041;42.266;23.110;2024-03-23T03:07:21;95920.69;;;1.04;100.00
43450;BME280;29041;42.266;23.110;2024-03-23T03:10:07;95924.16;;;1.10;100.00
43450;BME280;29041;42.266;23.110;2024-03-23T03:12:57;95930.41;;;0.93;100.00
43450;BME280;29041;42.266;23.110;2024-03-23T03:15:45;95908.97;;;0.90;100.00
43450;BME280;29041;42.266;23.110;2024-03-23T03:18:32;95916.97;;;1.05;100.00
43450;BME280;29041;42.266;23.110;2024-03-23T03:21:18;95921.69;;;0.98;100.00
43450;BME280;29041;42.266;23.110;2024-03-23T03:24:06;95924.34;;;0.98;100.00
43450;BME280;29041;42.266;23.110;2024-03-23T03:26:52;95918.78;;;0.94;100.00
43450;BME280;29041;42.266;23.110;2024-03-23T03:29:39;95919.72;;;0.73;100.00
43450;BME280;29041;42.266;23.110;2024-03-23T03:32:27;95925.06;;;0.83;100.00
43450;BME280;29041;42.266;23.110;2024-03-23T03:35:14;95926.88;;;0.77;100.00
43450;BME280;29041;42.266;23.110;2024-03-23T03:38:01;95923.69;;;0.75;100.00
43450;BME280;29041;42.266;23.110;2024-03-23T03:40:48;95923.22;;;0.84;100.00
43450;BME280;29041;42.266;23.110;2024-03-23T03:43:34;95915.53;;;0.77;100.00
43450;BME280;29041;42.266;23.110;2024-03-23T03:46:21;95918.94;;;0.77;100.00
43450;BME280;29041;42.266;23.110;2024-03-23T03:49:09;95919.56;;;0.52;100.00
43450;BME280;29041;42.266;23.110;2024-03-23T03:51:56;95923.69;;;0.38;100.00
43450;BME280;29041;42.266;23.110;2024-03-23T03:54:42;95928.97;;;0.38;100.00
43450;BME280;29041;42.266;23.110;2024-03-23T03:57:36;95930.13;;;0.14;100.00
43450;BME280;29041;42.266;23.110;2024-03-23T04:00:24;95929.75;;;0.06;100.00
43450;BME280;29041;42.266;23.110;2024-03-23T04:03:15;95930.66;;;0.17;100.00
43450;BME280;29041;42.266;23.110;2024-03-23T04:06:03;95910.97;;;0.02;100.00
43450;BME280;29041;42.266;23.110;2024-03-23T04:08:51;95930.56;;;0.06;100.00
43450;BME280;29041;42.266;23.110;2024-03-23T04:11:38;95931.63;;;0.05;100.00
43450;BME280;29041;42.266;23.110;2024-03-23T04:14:27;95917.06;;;0.03;100.00
43450;BME280;29041;42.266;23.110;2024-03-23T04:17:13;95929.53;;;0.40;100.00
43450;BME280;29041;42.266;23.110;2024-03-23T04:20:01;95932.09;;;0.02;100.00
43450;BME280;29041;42.266;23.110;2024-03-23T04:22:50;95937.78;;;0.16;100.00
43450;BME280;29041;42.266;23.110;2024-03-23T04:25:37;95935.47;;;-0.03;100.00
43450;BME280;29041;42.266;23.110;2024-03-23T04:28:23;95913.03;;;-0.05;100.00
43450;BME280;29041;42.266;23.110;2024-03-23T04:31:10;95932.22;;;0.12;100.00
43450;BME280;29041;42.266;23.110;2024-03-23T04:33:56;95923.88;;;-0.02;100.00
43450;BME280;29041;42.266;23.110;2024-03-23T04:36:43;95927.22;;;0.16;100.00
43450;BME280;29041;42.266;23.110;2024-03-23T04:39:31;95920.00;;;0.06;100.00
43450;BME280;29041;42.266;23.110;2024-03-23T04:42:18;95930.19;;;0.25;100.00
43450;BME280;29041;42.266;23.110;2024-03-23T04:45:06;95923.13;;;0.03;100.00
43450;BME280;29041;42.266;23.110;2024-03-23T04:47:52;95941.06;;;0.01;100.00
43450;BME280;29041;42.266;23.110;2024-03-23T04:50:39;95928.13;;;-0.01;100.00
43450;BME280;29041;42.266;23.110;2024-03-23T04:53:27;95931.81;;;-0.02;100.00
43450;BME280;29041;42.266;23.110;2024-03-23T04:56:16;95939.53;;;0.05;100.00
43450;BME280;29041;42.266;23.110;2024-03-23T04:59:04;95944.72;;;0.27;100.00
43450;BME280;29041;42.266;23.110;2024-03-23T05:01:50;95944.25;;;1.11;100.00
43450;BME280;29041;42.266;23.110;2024-03-23T05:04:37;95936.22;;;0.53;100.00
43450;BME280;29041;42.266;23.110;2024-03-23T05:07:24;95931.63;;;0.75;100.00
43450;BME280;29041;42.266;23.110;2024-03-23T05:10:11;95925.84;;;0.84;100.00
43450;BME280;29041;42.266;23.110;2024-03-23T05:13:03;95920.91;;;0.55;100.00
43450;BME280;29041;42.266;23.110;2024-03-23T05:15:52;95937.53;;;0.93;100.00
43450;BME280;29041;42.266;23.110;2024-03-23T05:18:38;95935.50;;;1.05;100.00
43450;BME280;29041;42.266;23.110;2024-03-23T05:21:26;95910.66;;;1.06;100.00
43450;BME280;29041;42.266;23.110;2024-03-23T05:24:14;95941.94;;;1.25;100.00
43450;BME280;29041;42.266;23.110;2024-03-23T05:27:01;95913.44;;;1.37;100.00
43450;BME280;29041;42.266;23.110;2024-03-23T05:29:48;95933.59;;;1.54;100.00
43450;BME280;29041;42.266;23.110;2024-03-23T05:32:35;95934.44;;;1.70;100.00
43450;BME280;29041;42.266;23.110;2024-03-23T05:35:21;95924.06;;;1.53;100.00
43450;BME280;29041;42.266;23.110;2024-03-23T05:38:08;95933.34;;;1.61;100.00
43450;BME280;29041;42.266;23.110;2024-03-23T05:40:56;95915.19;;;2.00;100.00
43450;BME280;29041;42.266;23.110;2024-03-23T05:43:44;95921.81;;;2.08;100.00
43450;BME280;29041;42.266;23.110;2024-03-23T05:46:31;95927.91;;;2.14;100.00
43450;BME280;29041;42.266;23.110;2024-03-23T05:49:20;95926.34;;;2.59;100.00
43450;BME280;29041;42.266;23.110;2024-03-23T05:52:07;95923.94;;;2.63;100.00
43450;BME280;29041;42.266;23.110;2024-03-23T05:54:54;95917.84;;;2.67;100.00
43450;BME280;29041;42.266;23.110;2024-03-23T05:57:41;95930.03;;;2.32;100.00
43450;BME280;29041;42.266;23.110;2024-03-23T06:00:28;95927.13;;;2.60;100.00
43450;BME280;29041;42.266;23.110;2024-03-23T06:03:15;95922.53;;;3.12;100.00
43450;BME280;29041;42.266;23.110;2024-03-23T06:06:03;95911.59;;;3.29;99.83
43450;BME280;29041;42.266;23.110;2024-03-23T06:08:50;95904.72;;;3.23;99.85
43450;BME280;29041;42.266;23.110;2024-03-23T06:11:37;95912.56;;;3.48;98.80
43450;BME280;29041;42.266;23.110;2024-03-23T06:14:23;95914.19;;;4.00;95.21
43450;BME280;29041;42.266;23.110;2024-03-23T06:17:10;95919.97;;;4.07;94.89
43450;BME280;29041;42.266;23.110;2024-03-23T06:19:57;95908.38;;;3.92;95.36
43450;BME280;29041;42.266;23.110;2024-03-23T06:22:45;95885.50;;;4.02;94.78
43450;BME280;29041;42.266;23.110;2024-03-23T06:25:31;95916.41;;;4.27;94.37
43450;BME280;29041;42.266;23.110;2024-03-23T06:28:18;95907.66;;;4.56;93.57
43450;BME280;29041;42.266;23.110;2024-03-23T06:31:08;95916.44;;;4.86;91.55
43450;BME280;29041;42.266;23.110;2024-03-23T06:33:56;95893.94;;;4.73;89.66
43450;BME280;29041;42.266;23.110;2024-03-23T06:36:43;95900.56;;;6.11;80.84
43450;BME280;29041;42.266;23.110;2024-03-23T06:39:30;95912.44;;;6.38;78.41
43450;BME280;29041;42.266;23.110;2024-03-23T06:42:17;95904.78;;;7.25;73.35
43450;BME280;29041;42.266;23.110;2024-03-23T06:45:06;95893.25;;;9.57;63.24
43450;BME280;29041;42.266;23.110;2024-03-23T06:47:54;95888.78;;;13.34;49.77
43450;BME280;29041;42.266;23.110;2024-03-23T06:50:43;95913.78;;;14.21;45.60
43450;BME280;29041;42.266;23.110;2024-03-23T06:53:30;95904.13;;;16.21;40.25
43450;BME280;29041;42.266;23.110;2024-03-23T06:56:18;95901.06;;;14.34;43.56
43450;BME280;29041;42.266;23.110;2024-03-23T06:59:04;95903.28;;;16.95;38.73
43450;BME280;29041;42.266;23.110;2024-03-23T07:01:51;95902.41;;;15.29;41.78
43450;BME280;29041;42.266;23.110;2024-03-23T07:04:37;95901.47;;;14.77;42.84
43450;BME280;29041;42.266;23.110;2024-03-23T07:07:25;95896.34;;;14.88;41.68
43450;BME280;29041;42.266;23.110;2024-03-23T07:10:12;95895.69;;;15.07;42.70
43450;BME280;29041;42.266;23.110;2024-03-23T07:12:59;95887.06;;;16.99;36.92
43450;BME280;29041;42.266;23.110;2024-03-23T07:15:51;95879.47;;;16.46;38.41
43450;BME280;29041;42.266;23.110;2024-03-23T07:18:38;95875.66;;;15.76;39.92
43450;BME280;29041;42.266;23.110;2024-03-23T07:21:24;95873.72;;;18.44;36.59
43450;BME280;29041;42.266;23.110;2024-03-23T07:24:12;95870.63;;;17.35;36.27
43450;BME280;29041;42.266;23.110;2024-03-23T07:26:59;95869.19;;;16.75;38.65
43450;BME280;29041;42.266;23.110;2024-03-23T07:29:48;95864.44;;;17.88;37.37
43450;BME280;29041;42.266;23.110;2024-03-23T07:32:34;95863.69;;;15.25;40.86
43450;BME280;29041;42.266;23.110;2024-03-23T07:35:22;95864.66;;;17.75;38.27
43450;BME280;29041;42.266;23.110;2024-03-23T07:38:08;95856.81;;;18.62;35.88
43450;BME280;29041;42.266;23.110;2024-03-23T07:41:05;95845.72;;;15.17;40.75
43450;BME280;29041;42.266;23.110;2024-03-23T07:43:54;95849.91;;;17.23;36.66
43450;BME280;29041;42.266;23.110;2024-03-23T07:46:40;95850.56;;;17.43;37.22
43450;BME280;29041;42.266;23.110;2024-03-23T07:49:27;95858.75;;;16.77;37.80
43450;BME280;29041;42.266;23.110;2024-03-23T07:52:14;95849.53;;;15.99;38.51
43450;BME280;29041;42.266;23.110;2024-03-23T07:55:02;95840.00;;;17.61;37.92
43450;BME280;29041;42.266;23.110;2024-03-23T07:57:50;95841.03;;;17.03;38.49
43450;BME280;29041;42.266;23.110;2024-03-23T08:00:40;95845.44;;;17.11;38.01
43450;BME280;29041;42.266;23.110;2024-03-23T08:03:26;95825.63;;;16.64;37.76
43450;BME280;29041;42.266;23.110;2024-03-23T08:06:15;95836.88;;;19.26;34.69
43450;BME280;29041;42.266;23.110;2024-03-23T08:09:01;95834.09;;;17.55;37.66
43450;BME280;29041;42.266;23.110;2024-03-23T08:11:48;95833.56;;;20.17;32.39
43450;BME280;29041;42.266;23.110;2024-03-23T08:14:34;95838.88;;;18.19;34.43
43450;BME280;29041;42.266;23.110;2024-03-23T08:17:23;95834.53;;;18.86;34.42
43450;BME280;29041;42.266;23.110;2024-03-23T08:20:09;95841.50;;;18.12;35.91
43450;BME280;29041;42.266;23.110;2024-03-23T08:22:56;95838.25;;;18.03;35.30
43450;BME280;29041;42.266;23.110;2024-03-23T08:25:43;95830.97;;;18.41;35.23
43450;BME280;29041;42.266;23.110;2024-03-23T08:28:30;95830.00;;;19.99;32.58
43450;BME280;29041;42.266;23.110;2024-03-23T08:31:16;95825.59;;;18.48;35.25
43450;BME280;29041;42.266;23.110;2024-03-23T08:34:05;95817.16;;;19.40;34.37
43450;BME280;29041;42.266;23.110;2024-03-23T08:36:51;95814.78;;;19.38;34.25
43450;BME280;29041;42.266;23.110;2024-03-23T08:39:38;95811.44;;;19.07;35.03
43450;BME280;29041;42.266;23.110;2024-03-23T08:42:24;95801.44;;;20.88;33.11
43450;BME280;29041;42.266;23.110;2024-03-23T08:45:11;95796.50;;;19.98;33.74
43450;BME280;29041;42.266;23.110;2024-03-23T08:47:57;95805.31;;;19.17;34.62
43450;BME280;29041;42.266;23.110;2024-03-23T08:50:46;95791.66;;;21.81;31.42
43450;BME280;29041;42.266;23.110;2024-03-23T08:53:34;95786.59;;;21.72;30.22
43450;BME280;29041;42.266;23.110;2024-03-23T08:56:20;95781.84;;;22.01;30.53
43450;BME280;29041;42.266;23.110;2024-03-23T08:59:07;95778.31;;;20.24;33.17
43450;BME280;29041;42.266;23.110;2024-03-23T09:01:53;95770.19;;;18.60;35.63
43450;BME280;29041;42.266;23.110;2024-03-23T09:04:40;95777.84;;;18.89;35.57
43450;BME280;29041;42.266;23.110;2024-03-23T09:07:28;95766.91;;;19.96;33.12
43450;BME280;29041;42.266;23.110;2024-03-23T09:10:15;95763.59;;;20.50;33.75
43450;BME280;29041;42.266;23.110;2024-03-23T09:13:01;95755.13;;;18.70;36.82
43450;BME280;29041;42.266;23.110;2024-03-23T09:15:49;95757.03;;;20.80;33.33
43450;BME280;29041;42.266;23.110;2024-03-23T09:18:36;95755.91;;;18.67;35.46
43450;BME280;29041;42.266;23.110;2024-03-23T09:21:23;95729.72;;;17.49;38.05
43450;BME280;29041;42.266;23.110;2024-03-23T09:24:11;95729.34;;;19.61;35.13
43450;BME280;29041;42.266;23.110;2024-03-23T09:26:58;95735.72;;;18.30;36.44
43450;BME280;29041;42.266;23.110;2024-03-23T09:29:44;95727.47;;;18.19;36.46
43450;BME280;29041;42.266;23.110;2024-03-23T09:32:31;95718.31;;;16.16;41.56
43450;BME280;29041;42.266;23.110;2024-03-23T09:35:17;95705.75;;;15.85;41.93
43450;BME280;29041;42.266;23.110;2024-03-23T09:38:04;95719.06;;;15.94;42.48
43450;BME280;29041;42.266;23.110;2024-03-23T09:40:53;95704.00;;;16.62;40.01
43450;BME280;29041;42.266;23.110;2024-03-23T09:43:43;95678.66;;;15.46;41.12
43450;BME280;29041;42.266;23.110;2024-03-23T09:46:34;95697.53;;;16.01;40.02
43450;BME280;29041;42.266;23.110;2024-03-23T09:49:22;95696.97;;;16.34;41.75
43450;BME280;29041;42.266;23.110;2024-03-23T09:52:08;95691.38;;;16.24;41.05
43450;BME280;29041;42.266;23.110;2024-03-23T09:54:55;95684.75;;;17.21;39.96
43450;BME280;29041;42.266;23.110;2024-03-23T09:57:43;95685.56;;;17.52;38.32
43450;BME280;29041;42.266;23.110;2024-03-23T10:00:30;95674.97;;;18.08;35.63
43450;BME280;29041;42.266;23.110;2024-03-23T10:03:16;95676.34;;;17.60;37.10
43450;BME280;29041;42.266;23.110;2024-03-23T10:06:05;95667.34;;;16.22;39.08
43450;BME280;29041;42.266;23.110;2024-03-23T10:08:52;95659.44;;;17.10;35.29
43450;BME280;29041;42.266;23.110;2024-03-23T10:11:40;95654.94;;;16.21;34.27
43450;BME280;29041;42.266;23.110;2024-03-23T10:14:30;95652.22;;;17.21;33.37
43450;BME280;29041;42.266;23.110;2024-03-23T10:17:17;95641.19;;;18.05;31.94
43450;BME280;29041;42.266;23.110;2024-03-23T10:20:09;95640.50;;;18.16;30.12
43450;BME280;29041;42.266;23.110;2024-03-23T10:22:56;95635.84;;;18.65;25.38
43450;BME280;29041;42.266;23.110;2024-03-23T10:25:43;95642.19;;;18.31;27.25
43450;BME280;29041;42.266;23.110;2024-03-23T10:28:30;95613.41;;;18.27;29.45
43450;BME280;29041;42.266;23.110;2024-03-23T10:31:18;95629.53;;;17.37;30.22
43450;BME280;29041;42.266;23.110;2024-03-23T10:34:05;95619.59;;;18.20;29.00
43450;BME280;29041;42.266;23.110;2024-03-23T10:36:53;95616.47;;;19.33;26.73
43450;BME280;29041;42.266;23.110;2024-03-23T10:39:40;95590.09;;;19.59;27.12
43450;BME280;29041;42.266;23.110;2024-03-23T10:42:28;95594.47;;;20.00;24.45
43450;BME280;29041;42.266;23.110;2024-03-23T10:45:14;95593.34;;;18.42;27.97
43450;BME280;29041;42.266;23.110;2024-03-23T10:48:04;95596.16;;;19.12;27.52
43450;BME280;29041;42.266;23.110;2024-03-23T10:50:50;95583.00;;;19.32;27.09
43450;BME280;29041;42.266;23.110;2024-03-23T10:53:37;95570.34;;;20.77;23.91
43450;BME280;29041;42.266;23.110;2024-03-23T10:56:24;95571.69;;;19.20;25.66
43450;BME280;29041;42.266;23.110;2024-03-23T10:59:12;95562.09;;;19.58;25.40
43450;BME280;29041;42.266;23.110;2024-03-23T11:01:59;95565.78;;;18.40;27.71
43450;BME280;29041;42.266;23.110;2024-03-23T11:04:50;95559.50;;;18.92;27.80
43450;BME280;29041;42.266;23.110;2024-03-23T11:07:36;95549.56;;;17.99;26.63
43450;BME280;29041;42.266;23.110;2024-03-23T11:10:26;95530.38;;;18.33;26.83
43450;BME280;29041;42.266;23.110;2024-03-23T11:13:22;95533.00;;;19.84;26.59
43450;BME280;29041;42.266;23.110;2024-03-23T11:16:22;95531.44;;;20.01;24.94
43450;BME280;29041;42.266;23.110;2024-03-23T11:19:33;95518.56;;;21.55;24.64
43450;BME280;29041;42.266;23.110;2024-03-23T11:22:40;95517.81;;;22.57;23.50
43450;BME280;29041;42.266;23.110;2024-03-23T11:25:27;95499.78;;;19.17;26.71
43450;BME280;29041;42.266;23.110;2024-03-23T11:28:14;95505.41;;;18.76;26.27
43450;BME280;29041;42.266;23.110;2024-03-23T11:31:09;95489.19;;;21.03;25.01
43450;BME280;29041;42.266;23.110;2024-03-23T11:34:03;95497.56;;;20.35;25.55
43450;BME280;29041;42.266;23.110;2024-03-23T11:36:50;95479.34;;;21.20;25.67
43450;BME280;29041;42.266;23.110;2024-03-23T11:39:38;95459.91;;;22.20;24.47
43450;BME280;29041;42.266;23.110;2024-03-23T11:42:24;95478.53;;;21.27;24.27
43450;BME280;29041;42.266;23.110;2024-03-23T11:45:12;95468.44;;;21.20;24.43
43450;BME280;29041;42.266;23.110;2024-03-23T11:48:07;95473.81;;;21.35;23.12
43450;BME280;29041;42.266;23.110;2024-03-23T11:50:55;95459.41;;;20.24;23.83
43450;BME280;29041;42.266;23.110;2024-03-23T11:53:43;95459.97;;;20.93;21.98
43450;BME280;29041;42.266;23.110;2024-03-23T11:56:31;95447.69;;;20.31;21.90
43450;BME280;29041;42.266;23.110;2024-03-23T11:59:30;95440.06;;;21.70;19.90
43450;BME280;29041;42.266;23.110;2024-03-23T12:02:18;95424.69;;;21.87;19.45
43450;BME280;29041;42.266;23.110;2024-03-23T12:05:14;95419.16;;;23.02;18.64
43450;BME280;29041;42.266;23.110;2024-03-23T12:08:21;95426.06;;;21.61;20.69
43450;BME280;29041;42.266;23.110;2024-03-23T12:11:09;95422.44;;;20.12;22.03
43450;BME280;29041;42.266;23.110;2024-03-23T12:13:59;95416.81;;;20.70;21.86
43450;BME280;29041;42.266;23.110;2024-03-23T12:16:45;95402.06;;;20.60;22.56
43450;BME280;29041;42.266;23.110;2024-03-23T12:19:32;95399.59;;;20.91;22.61
43450;BME280;29041;42.266;23.110;2024-03-23T12:22:20;95405.19;;;20.55;23.36
43450;BME280;29041;42.266;23.110;2024-03-23T12:25:07;95396.88;;;20.91;23.76
43450;BME280;29041;42.266;23.110;2024-03-23T12:27:58;95395.22;;;20.01;25.48
43450;BME280;29041;42.266;23.110;2024-03-23T12:30:46;95370.63;;;21.12;26.04
43450;BME280;29041;42.266;23.110;2024-03-23T12:33:33;95374.22;;;19.51;24.97
43450;BME280;29041;42.266;23.110;2024-03-23T12:36:19;95377.69;;;20.06;23.86
43450;BME280;29041;42.266;23.110;2024-03-23T12:39:06;95369.94;;;19.75;25.59
43450;BME280;29041;42.266;23.110;2024-03-23T12:41:52;95361.78;;;19.43;22.88
43450;BME280;29041;42.266;23.110;2024-03-23T12:44:39;95369.94;;;19.39;23.54
43450;BME280;29041;42.266;23.110;2024-03-23T12:47:27;95354.41;;;19.58;24.23
43450;BME280;29041;42.266;23.110;2024-03-23T12:50:15;95340.31;;;18.73;25.86
43450;BME280;29041;42.266;23.110;2024-03-23T12:53:01;95340.41;;;19.09;25.60
43450;BME280;29041;42.266;23.110;2024-03-23T12:55:48;95326.41;;;19.07;24.78
43450;BME280;29041;42.266;23.110;2024-03-23T12:58:37;95349.34;;;19.45;24.65
43450;BME280;29041;42.266;23.110;2024-03-23T13:01:24;95339.25;;;19.42;24.89
43450;BME280;29041;42.266;23.110;2024-03-23T13:04:12;95342.63;;;20.11;23.92
43450;BME280;29041;42.266;23.110;2024-03-23T13:06:58;95332.09;;;20.21;23.13
43450;BME280;29041;42.266;23.110;2024-03-23T13:09:45;95331.84;;;20.79;22.37
43450;BME280;29041;42.266;23.110;2024-03-23T13:12:32;95321.72;;;19.25;24.42
43450;BME280;29041;42.266;23.110;2024-03-23T13:15:19;95300.31;;;18.69;24.11
43450;BME280;29041;42.266;23.110;2024-03-23T13:18:06;95311.19;;;19.74;24.51
43450;BME280;29041;42.266;23.110;2024-03-23T13:20:55;95298.03;;;19.37;24.16
43450;BME280;29041;42.266;23.110;2024-03-23T13:23:41;95294.16;;;18.98;25.40
43450;BME280;29041;42.266;23.110;2024-03-23T13:26:31;95303.03;;;19.56;25.62
43450;BME280;29041;42.266;23.110;2024-03-23T13:29:17;95291.44;;;19.23;26.44
43450;BME280;29041;42.266;23.110;2024-03-23T13:32:05;95287.53;;;19.28;26.93
43450;BME280;29041;42.266;23.110;2024-03-23T13:34:52;95295.66;;;19.68;25.84
43450;BME280;29041;42.266;23.110;2024-03-23T13:37:40;95283.22;;;19.56;26.29
43450;BME280;29041;42.266;23.110;2024-03-23T13:40:27;95284.78;;;18.84;26.66
43450;BME280;29041;42.266;23.110;2024-03-23T13:43:14;95285.38;;;18.09;27.29
43450;BME280;29041;42.266;23.110;2024-03-23T13:46:00;95288.78;;;17.91;28.03
43450;BME280;29041;42.266;23.110;2024-03-23T13:48:47;95263.75;;;18.38;27.70
43450;BME280;29041;42.266;23.110;2024-03-23T13:51:34;95255.59;;;18.42;27.41
43450;BME280;29041;42.266;23.110;2024-03-23T13:54:22;95257.84;;;18.18;28.22
43450;BME280;29041;42.266;23.110;2024-03-23T13:57:10;95254.78;;;18.37;28.24
43450;BME280;29041;42.266;23.110;2024-03-23T13:59:56;95224.09;;;18.19;28.33
43450;BME280;29041;42.266;23.110;2024-03-23T14:02:43;95250.94;;;18.46;28.69
43450;BME280;29041;42.266;23.110;2024-03-23T14:05:29;95260.28;;;18.70;28.01
43450;BME280;29041;42.266;23.110;2024-03-23T14:08:16;95255.66;;;18.74;28.66
43450;BME280;29041;42.266;23.110;2024-03-23T14:11:04;95239.66;;;18.33;27.59
43450;BME280;29041;42.266;23.110;2024-03-23T14:13:52;95239.59;;;18.11;28.59
43450;BME280;29041;42.266;23.110;2024-03-23T14:16:38;95247.38;;;18.13;29.18
43450;BME280;29041;42.266;23.110;2024-03-23T14:19:25;95248.78;;;17.88;28.46
43450;BME280;29041;42.266;23.110;2024-03-23T14:22:11;95240.25;;;17.83;29.08
43450;BME280;29041;42.266;23.110;2024-03-23T14:24:59;95224.00;;;17.90;28.54
43450;BME280;29041;42.266;23.110;2024-03-23T14:27:46;95236.13;;;18.14;28.54
43450;BME280;29041;42.266;23.110;2024-03-23T14:30:33;95234.84;;;17.90;28.66
43450;BME280;29041;42.266;23.110;2024-03-23T14:33:20;95247.38;;;18.16;28.45
43450;BME280;29041;42.266;23.110;2024-03-23T14:36:07;95233.25;;;17.78;28.68
43450;BME280;29041;42.266;23.110;2024-03-23T14:38:54;95229.72;;;17.74;29.28
43450;BME280;29041;42.266;23.110;2024-03-23T14:41:41;95224.72;;;17.83;29.10
43450;BME280;29041;42.266;23.110;2024-03-23T14:44:28;95226.44;;;17.39;29.51
43450;BME280;29041;42.266;23.110;2024-03-23T14:47:15;95214.88;;;17.46;29.71
43450;BME280;29041;42.266;23.110;2024-03-23T14:50:03;95224.88;;;17.31;30.12
43450;BME280;29041;42.266;23.110;2024-03-23T14:52:51;95218.28;;;17.36;30.07
43450;BME280;29041;42.266;23.110;2024-03-23T14:55:38;95218.78;;;17.52;30.28
43450;BME280;29041;42.266;23.110;2024-03-23T14:58:26;95213.06;;;17.72;30.10
43450;BME280;29041;42.266;23.110;2024-03-23T15:01:14;95207.56;;;17.61;30.13
43450;BME280;29041;42.266;23.110;2024-03-23T15:04:00;95209.38;;;17.32;30.41
43450;BME280;29041;42.266;23.110;2024-03-23T15:06:49;95206.78;;;17.60;29.63
43450;BME280;29041;42.266;23.110;2024-03-23T15:09:36;95203.38;;;17.78;29.52
43450;BME280;29041;42.266;23.110;2024-03-23T15:12:23;95201.41;;;17.71;29.50
43450;BME280;29041;42.266;23.110;2024-03-23T15:15:09;95197.13;;;17.70;29.26
43450;BME280;29041;42.266;23.110;2024-03-23T15:17:57;95202.50;;;17.56;29.56
43450;BME280;29041;42.266;23.110;2024-03-23T15:20:51;95199.72;;;17.41;29.60
43450;BME280;29041;42.266;23.110;2024-03-23T15:23:39;95191.84;;;17.15;29.61
43450;BME280;29041;42.266;23.110;2024-03-23T15:26:25;95198.00;;;17.11;29.94
43450;BME280;29041;42.266;23.110;2024-03-23T15:29:12;95196.81;;;17.09;29.58
43450;BME280;29041;42.266;23.110;2024-03-23T15:32:02;95196.78;;;17.02;30.89